Home > Products > Valid Products > TAF

000
FTUS45 KTWC 120520
TAFDUG
TAF
KDUG 120520Z 1206/1306 02009KT P6SM SKC
     FM121000 VRB03KT P6SM SKC
     FM121900 13008KT P6SM SKC=



000
FTUS45 KTWC 120520
TAFTUS
TAF
KTUS 120520Z 1206/1306 14010KT P6SM SKC
     FM122100 32006KT P6SM SKC=



000
FTUS45 KTWC 120520
TAFOLS
TAF
KOLS 120520Z 1206/1306 VRB04KT P6SM SKC
     FM121700 10007KT P6SM SKC=



000
FTUS45 KTWC 112338
TAFOLS
TAF
KOLS 112338Z 1200/1224 31005KT P6SM SKC
     FM120200 VRB04KT P6SM SKC
     FM121700 10007KT P6SM SKC=



000
FTUS45 KTWC 112338
TAFTUS
TAF
KTUS 112338Z 1200/1224 34008KT P6SM SKC
     FM120200 VRB03KT P6SM SKC
     FM120700 14010KT P6SM SKC
     FM122100 32006KT P6SM SKC=



000
FTUS45 KTWC 112338
TAFDUG
TAF
KDUG 112338Z 1200/1224 35006KT P6SM SKC
     FM120400 02009KT P6SM SKC
     FM121000 VRB03KT P6SM SKC
     FM121900 13008KT P6SM SKC=



000
FTUS45 KTWC 112338
TAFOLS
TAF
KOLS 112338Z 1200/1224 31005KT P6SM SKC
     FM120200 VRB04KT P6SM SKC
     FM121700 10007KT P6SM SKC=



000
FTUS45 KTWC 112338
TAFOLS
TAF
KOLS 112338Z 1200/1224 31005KT P6SM SKC
     FM120200 VRB04KT P6SM SKC
     FM121700 10007KT P6SM SKC=



000
FTUS45 KTWC 112338
TAFDUG
TAF
KDUG 112338Z 1200/1224 35006KT P6SM SKC
     FM120400 02009KT P6SM SKC
     FM121000 VRB03KT P6SM SKC
     FM121900 13008KT P6SM SKC=



000
FTUS45 KTWC 112338
TAFTUS
TAF
KTUS 112338Z 1200/1224 34008KT P6SM SKC
     FM120200 VRB03KT P6SM SKC
     FM120700 14010KT P6SM SKC
     FM122100 32006KT P6SM SKC=



000
FTUS45 KTWC 111741
TAFDUG
TAF
KDUG 111741Z 1118/1218 VRB03KT P6SM SKC
     FM112200 35006KT P6SM SKC
     FM120300 VRB04KT P6SM SKC=



000
FTUS45 KTWC 111741
TAFTUS
TAF
KTUS 111741Z 1118/1218 15006KT P6SM SKC
     FM112100 32008KT P6SM SKC
     FM120400 14007KT P6SM SKC=



000
FTUS45 KTWC 111741
TAFOLS
TAF
KOLS 111741Z 1118/1218 VRB04KT P6SM SKC
     FM112100 30007KT P6SM SKC
     FM120400 VRB04KT P6SM SKC=



000
FTUS45 KTWC 111741
TAFDUG
TAF
KDUG 111741Z 1118/1218 VRB03KT P6SM SKC
     FM112200 35006KT P6SM SKC
     FM120300 VRB04KT P6SM SKC=



000
FTUS45 KTWC 111741
TAFOLS
TAF
KOLS 111741Z 1118/1218 VRB04KT P6SM SKC
     FM112100 30007KT P6SM SKC
     FM120400 VRB04KT P6SM SKC=



000
FTUS45 KTWC 111741
TAFTUS
TAF
KTUS 111741Z 1118/1218 15006KT P6SM SKC
     FM112100 32008KT P6SM SKC
     FM120400 14007KT P6SM SKC=



000
FTUS45 KTWC 111134
TAFDUG
TAF
KDUG 111134Z 1112/1212 VRB05KT P6SM FEW250
     FM112200 33006KT P6SM SKC
     FM120300 02006KT P6SM SKC=



000
FTUS45 KTWC 111134
TAFOLS
TAF
KOLS 111134Z 1112/1212 VRB04KT P6SM FEW250
     FM112000 30007KT P6SM SKC
     FM120200 VRB04KT P6SM SKC=



000
FTUS45 KTWC 111134
TAFTUS
TAF
KTUS 111134Z 1112/1212 14011KT P6SM FEW250
     FM111400 11005KT P6SM FEW250
     FM112000 32007KT P6SM SKC
     FM120600 15007KT P6SM SKC=



000
FTUS45 KTWC 111134
TAFOLS
TAF
KOLS 111134Z 1112/1212 VRB04KT P6SM FEW250
     FM112000 30007KT P6SM SKC
     FM120200 VRB04KT P6SM SKC=



000
FTUS45 KTWC 111134
TAFTUS
TAF
KTUS 111134Z 1112/1212 14011KT P6SM FEW250
     FM111400 11005KT P6SM FEW250
     FM112000 32007KT P6SM SKC
     FM120600 15007KT P6SM SKC=



000
FTUS45 KTWC 111134
TAFDUG
TAF
KDUG 111134Z 1112/1212 VRB05KT P6SM FEW250
     FM112200 33006KT P6SM SKC
     FM120300 02006KT P6SM SKC=



000
FTUS45 KTWC 111134
TAFOLS
TAF
KOLS 111134Z 1112/1212 VRB04KT P6SM FEW250
     FM112000 30007KT P6SM SKC
     FM120200 VRB04KT P6SM SKC=



000
FTUS45 KTWC 110520
TAFDUG
TAF
KDUG 110520Z 1106/1206 36008KT P6SM SCT250
     FM111000 VRB04KT P6SM SCT250
     FM112000 21006KT P6SM SKC=



000
FTUS45 KTWC 110520
TAFOLS
TAF
KOLS 110520Z 1106/1206 10005KT P6SM SCT250
     FM110900 VRB04KT P6SM SCT250
     FM112000 30009KT P6SM SKC=



000
FTUS45 KTWC 110520
TAFDUG
TAF
KDUG 110520Z 1106/1206 36008KT P6SM SCT250
     FM111000 VRB04KT P6SM SCT250
     FM112000 21006KT P6SM SKC=



000
FTUS45 KTWC 110520
TAFTUS
TAF
KTUS 110520Z 1106/1206 14007KT P6SM SCT250
     FM111400 11005KT P6SM SCT250
     FM112000 32007KT P6SM SKC=



000
FTUS45 KTWC 110520
TAFOLS
TAF
KOLS 110520Z 1106/1206 10005KT P6SM SCT250
     FM110900 VRB04KT P6SM SCT250
     FM112000 30009KT P6SM SKC=



000
FTUS45 KTWC 110520
TAFTUS
TAF
KTUS 110520Z 1106/1206 14007KT P6SM SCT250
     FM111400 11005KT P6SM SCT250
     FM112000 32007KT P6SM SKC=



000
FTUS45 KTWC 102340
TAFTUS
TAF
KTUS 102340Z 1100/1124 35008KT P6SM FEW250
     FM110200 25005KT P6SM SCT250
     FM110700 14007KT P6SM BKN250
     FM112000 32007KT P6SM SKC=



000
FTUS45 KTWC 102340
TAFOLS
TAF
KOLS 102340Z 1100/1124 32010KT P6SM FEW250
     FM110200 VRB04KT P6SM BKN250
     FM112000 30009KT P6SM SKC=



000
FTUS45 KTWC 102340
TAFTUS
TAF
KTUS 102340Z 1100/1124 35008KT P6SM FEW250
     FM110200 25005KT P6SM SCT250
     FM110700 14007KT P6SM BKN250
     FM112000 32007KT P6SM SKC=



000
FTUS45 KTWC 102340
TAFDUG
TAF
KDUG 102340Z 1100/1124 24005KT P6SM SKC
     FM110200 35008KT P6SM SCT250
     FM111000 VRB04KT P6SM BKN250
     FM112000 21006KT P6SM SKC=



000
FTUS45 KTWC 102340
TAFDUG
TAF
KDUG 102340Z 1100/1124 24005KT P6SM SKC
     FM110200 35008KT P6SM SCT250
     FM111000 VRB04KT P6SM BKN250
     FM112000 21006KT P6SM SKC=



000
FTUS45 KTWC 102340
TAFOLS
TAF
KOLS 102340Z 1100/1124 32010KT P6SM FEW250
     FM110200 VRB04KT P6SM BKN250
     FM112000 30009KT P6SM SKC=



000
FTUS45 KTWC 102340
TAFOLS
TAF
KOLS 102340Z 1100/1124 32010KT P6SM FEW250
     FM110200 VRB04KT P6SM BKN250
     FM112000 30009KT P6SM SKC=



000
FTUS45 KTWC 101947 RRA
TAFDUG
TAF
KDUG 101947Z 1020/1118 01006KT P6SM SKC
     FM110200 VRB04KT P6SM SKC=



000
FTUS45 KTWC 101720
TAFOLS
TAF
KOLS 101720Z 1018/1118 VRB04KT P6SM SKC
     FM102200 23006KT P6SM SKC
     FM110100 VRB04KT P6SM SKC=



000
FTUS45 KTWC 101720
TAFDUG
TAF
KDUG 101720Z 1018/1118 01006KT P6SM SKC
     FM110200 VRB04KT P6SM SKC=



000
FTUS45 KTWC 101720
TAFTUS
TAF
KTUS 101720Z 1018/1118 13012G18KT P6SM SKC
     FM102000 06005KT P6SM SKC
     FM110300 14005KT P6SM SKC=



000
FTUS45 KTWC 101134
TAFOLS
TAF
KOLS 101134Z 1012/1112 04006KT P6SM SKC
     FM101700 04007KT P6SM SKC
     FM102200 23006KT P6SM SKC
     FM110100 VRB04KT P6SM SKC=



000
FTUS45 KTWC 101134
TAFTUS
TAF
KTUS 101134Z 1012/1112 14009KT P6SM SKC
     FM101600 12014G20KT P6SM SKC
     FM102000 09006KT P6SM SKC
     FM110300 VRB05KT P6SM SKC=



000
FTUS45 KTWC 101134
TAFDUG
TAF
KDUG 101134Z 1012/1112 35006KT P6SM SKC
     FM101700 11008KT P6SM SKC
     FM110100 01006KT P6SM SKC=



000
FTUS45 KTWC 101134
TAFTUS
TAF
KTUS 101134Z 1012/1112 14009KT P6SM SKC
     FM101600 12014G20KT P6SM SKC
     FM102000 09006KT P6SM SKC
     FM110300 VRB05KT P6SM SKC=



000
FTUS45 KTWC 101134
TAFDUG
TAF
KDUG 101134Z 1012/1112 35006KT P6SM SKC
     FM101700 11008KT P6SM SKC
     FM110100 01006KT P6SM SKC=



000
FTUS45 KTWC 101134
TAFOLS
TAF
KOLS 101134Z 1012/1112 04006KT P6SM SKC
     FM101700 04007KT P6SM SKC
     FM102200 23006KT P6SM SKC
     FM110100 VRB04KT P6SM SKC=



000
FTUS45 KTWC 101134
TAFOLS
TAF
KOLS 101134Z 1012/1112 04006KT P6SM SKC
     FM101700 04007KT P6SM SKC
     FM102200 23006KT P6SM SKC
     FM110100 VRB04KT P6SM SKC=



000
FTUS45 KTWC 100527
TAFTUS
TAF
KTUS 100527Z 1006/1106 12007KT P6SM SKC
     FM101600 11013G20KT P6SM SKC
     FM102200 06006KT P6SM SKC=



000
FTUS45 KTWC 100527
TAFOLS
TAF
KOLS 100527Z 1006/1106 02007KT P6SM SKC
     FM100800 VRB03KT P6SM SKC
     FM102000 23006KT P6SM SKC=



000
FTUS45 KTWC 100527
TAFDUG
TAF
KDUG 100527Z 1006/1106 01010KT P6SM SKC
     FM101000 VRB03KT P6SM SKC
     FM101700 11008KT P6SM SKC=



000
FTUS45 KTWC 100527
TAFDUG
TAF
KDUG 100527Z 1006/1106 01010KT P6SM SKC
     FM101000 VRB03KT P6SM SKC
     FM101700 11008KT P6SM SKC=



000
FTUS45 KTWC 100527
TAFOLS
TAF
KOLS 100527Z 1006/1106 02007KT P6SM SKC
     FM100800 VRB03KT P6SM SKC
     FM102000 23006KT P6SM SKC=



000
FTUS45 KTWC 100527
TAFTUS
TAF
KTUS 100527Z 1006/1106 12007KT P6SM SKC
     FM101600 11013G20KT P6SM SKC
     FM102200 06006KT P6SM SKC=



000
FTUS45 KTWC 092331
TAFOLS
TAF
KOLS 092331Z 1000/1024 03012KT P6SM SKC
     FM100200 06007KT P6SM SKC
     FM100800 VRB03KT P6SM SKC
     FM102000 23006KT P6SM SKC=



000
FTUS45 KTWC 092331
TAFOLS
TAF
KOLS 092331Z 1000/1024 03012KT P6SM SKC
     FM100200 06007KT P6SM SKC
     FM100800 VRB03KT P6SM SKC
     FM102000 23006KT P6SM SKC=



000
FTUS45 KTWC 092331
TAFTUS
TAF
KTUS 092331Z 1000/1024 05010KT P6SM SKC
     FM100700 14007KT P6SM SKC
     FM101600 11013G20KT P6SM SKC
     FM102200 06006KT P6SM SKC=



000
FTUS45 KTWC 092331
TAFOLS
TAF
KOLS 092331Z 1000/1024 03012KT P6SM SKC
     FM100200 06007KT P6SM SKC
     FM100800 VRB03KT P6SM SKC
     FM102000 23006KT P6SM SKC=



000
FTUS45 KTWC 092331
TAFDUG
TAF
KDUG 092331Z 1000/1024 09014KT P6SM SKC
     FM100400 03007KT P6SM SKC
     FM101000 VRB03KT P6SM SKC
     FM101700 11008KT P6SM SKC=



000
FTUS45 KTWC 092331
TAFTUS
TAF
KTUS 092331Z 1000/1024 05010KT P6SM SKC
     FM100700 14007KT P6SM SKC
     FM101600 11013G20KT P6SM SKC
     FM102200 06006KT P6SM SKC=



000
FTUS45 KTWC 092331
TAFDUG
TAF
KDUG 092331Z 1000/1024 09014KT P6SM SKC
     FM100400 03007KT P6SM SKC
     FM101000 VRB03KT P6SM SKC
     FM101700 11008KT P6SM SKC=



000
FTUS45 KTWC 091720
TAFTUS
TAF
KTUS 091720Z 0918/1018 11012G20KT P6SM SKC
     FM092200 08009KT P6SM SKC
     FM100400 12009KT P6SM SKC=



000
FTUS45 KTWC 091720
TAFTUS
TAF
KTUS 091720Z 0918/1018 11012G20KT P6SM SKC
     FM092200 08009KT P6SM SKC
     FM100400 12009KT P6SM SKC=



000
FTUS45 KTWC 091720
TAFOLS
TAF
KOLS 091720Z 0918/1018 36007KT P6SM SKC
     FM091900 06010KT P6SM SKC
     FM100200 06007KT P6SM SKC=



000
FTUS45 KTWC 091720
TAFOLS
TAF
KOLS 091720Z 0918/1018 36007KT P6SM SKC
     FM091900 06010KT P6SM SKC
     FM100200 06007KT P6SM SKC=



000
FTUS45 KTWC 091720
TAFDUG
TAF
KDUG 091720Z 0918/1018 36010KT P6SM SKC
     FM091900 10012KT P6SM SKC
     FM100400 03007KT P6SM SKC=



000
FTUS45 KTWC 091720
TAFOLS
TAF
KOLS 091720Z 0918/1018 36007KT P6SM SKC
     FM091900 06010KT P6SM SKC
     FM100200 06007KT P6SM SKC=



000
FTUS45 KTWC 091720
TAFDUG
TAF
KDUG 091720Z 0918/1018 36010KT P6SM SKC
     FM091900 10012KT P6SM SKC
     FM100400 03007KT P6SM SKC=



000
FTUS45 KTWC 091125
TAFOLS
TAF
KOLS 091125Z 0912/1012 03006KT P6SM SKC
     FM091700 06010KT P6SM SKC
     FM100200 03006KT P6SM SKC=



000
FTUS45 KTWC 091125
TAFTUS
TAF
KTUS 091125Z 0912/1012 VRB06KT P6SM SKC
     FM091600 11012G20KT P6SM SKC
     FM092100 08009KT P6SM SKC
     FM100400 14006KT P6SM SKC=



000
FTUS45 KTWC 091125
TAFDUG
TAF
KDUG 091125Z 0912/1012 36005KT P6SM SKC
     FM091700 09012KT P6SM SKC
     FM100400 03007KT P6SM SKC=



    US Dept of Commerce
    National Oceanic and Atmospheric Administration
    National Weather Service
    1325 East West Highway
    Silver Spring, MD 20910
    Page Author: NWS Internet Services Team
Disclaimer
Information Quality
Credits
Glossary
Privacy Policy
Freedom of Information Act (FOIA)
About Us
Career Opportunities